createdAt,value
2023-05-10T00:00:19.841Z,9.80
2023-05-10T00:02:49.862Z,9.81
2023-05-10T00:05:20.327Z,9.83
2023-05-10T00:07:48.952Z,9.84
2023-05-10T00:10:17.734Z,9.86
2023-05-10T00:12:46.516Z,9.90
2023-05-10T00:15:15.396Z,9.91
2023-05-10T00:17:44.082Z,9.92
2023-05-10T00:20:13.129Z,9.94
2023-05-10T00:22:43.305Z,9.96
2023-05-10T00:25:13.401Z,9.99
2023-05-10T00:27:42.100Z,10.00
2023-05-10T00:30:11.408Z,10.02
2023-05-10T00:32:41.344Z,10.01
2023-05-10T00:35:10.419Z,10.00
2023-05-10T00:37:41.358Z,9.98
2023-05-10T00:40:11.680Z,9.97
2023-05-10T00:42:45.203Z,9.98
2023-05-10T00:45:14.920Z,10.00
2023-05-10T00:47:43.799Z,9.98
2023-05-10T00:50:15.095Z,9.95
2023-05-10T00:52:44.084Z,9.93
2023-05-10T00:55:13.250Z,9.95
2023-05-10T00:57:41.957Z,9.94
2023-05-10T01:00:12.412Z,9.96
2023-05-10T01:02:43.379Z,9.97
2023-05-10T01:05:13.390Z,9.95
2023-05-10T01:07:42.376Z,9.90
2023-05-10T01:10:12.266Z,9.87
2023-05-10T01:12:42.643Z,9.86
2023-05-10T01:15:11.697Z,9.85
2023-05-10T01:17:41.932Z,9.87
2023-05-10T01:20:11.490Z,9.90
2023-05-10T01:23:31.750Z,9.92
2023-05-10T01:26:27.839Z,9.93
2023-05-10T01:29:21.906Z,9.94
2023-05-10T01:32:17.524Z,9.92
2023-05-10T01:35:03.617Z,9.91
2023-05-10T01:37:49.585Z,9.93
2023-05-10T01:40:26.485Z,9.94
2023-05-10T01:43:02.548Z,9.92
2023-05-10T01:45:42.444Z,9.94
2023-05-10T01:48:12.134Z,9.92
2023-05-10T01:50:44.328Z,9.92
2023-05-10T01:53:13.686Z,9.91
2023-05-10T01:55:53.189Z,9.89
2023-05-10T01:58:31.552Z,9.85
2023-05-10T02:01:03.013Z,9.85
2023-05-10T02:03:31.983Z,9.84
2023-05-10T02:06:00.926Z,9.84
2023-05-10T02:08:30.439Z,9.81
2023-05-10T02:10:59.493Z,9.80
2023-05-10T02:13:30.189Z,9.78
2023-05-10T02:15:58.953Z,9.77
2023-05-10T02:18:28.310Z,9.72
2023-05-10T02:20:58.345Z,9.68
2023-05-10T02:23:27.261Z,9.64
2023-05-10T02:25:55.843Z,9.63
2023-05-10T02:28:25.093Z,9.58
2023-05-10T02:30:53.709Z,9.53
2023-05-10T02:33:23.039Z,9.49
2023-05-10T02:35:52.583Z,9.48
2023-05-10T02:38:23.006Z,9.44
2023-05-10T02:40:52.493Z,9.42
2023-05-10T02:43:21.248Z,9.39
2023-05-10T02:45:50.279Z,9.36
2023-05-10T02:48:20.143Z,9.33
2023-05-10T02:50:52.095Z,9.30
2023-05-10T02:53:24.517Z,9.28
2023-05-10T02:55:53.677Z,9.29
2023-05-10T02:58:22.372Z,9.30
2023-05-10T03:00:51.136Z,9.33
2023-05-10T03:03:21.878Z,9.35
2023-05-10T03:05:55.005Z,9.35
2023-05-10T03:08:24.372Z,9.36
2023-05-10T03:11:27.217Z,9.36
2023-05-10T03:14:15.238Z,9.34
2023-05-10T03:16:50.475Z,9.32
2023-05-10T03:19:52.427Z,9.31
2023-05-10T03:22:27.727Z,9.34
2023-05-10T03:24:58.313Z,9.34
2023-05-10T03:27:28.225Z,9.36
2023-05-10T03:29:57.388Z,9.37
2023-05-10T03:32:28.280Z,9.37
2023-05-10T03:34:57.762Z,9.38
2023-05-10T03:37:27.230Z,9.40
2023-05-10T03:39:56.120Z,9.38
2023-05-10T03:42:25.557Z,9.37
2023-05-10T03:44:54.959Z,9.41
2023-05-10T03:47:23.688Z,9.42
2023-05-10T03:49:52.603Z,9.42
2023-05-10T03:52:21.396Z,9.43
2023-05-10T03:54:50.378Z,9.44
2023-05-10T03:57:18.951Z,9.47
2023-05-10T03:59:47.566Z,9.49
2023-05-10T04:02:16.426Z,9.51
2023-05-10T04:04:45.291Z,9.53
2023-05-10T04:07:14.127Z,9.56
2023-05-10T04:09:42.950Z,9.59
2023-05-10T04:12:12.820Z,9.62
2023-05-10T04:14:41.797Z,9.65
2023-05-10T04:17:10.985Z,9.70
2023-05-10T04:19:40.210Z,9.76
2023-05-10T04:22:10.950Z,9.84
2023-05-10T04:24:40.225Z,9.91
2023-05-10T04:27:10.713Z,9.96
2023-05-10T04:29:40.129Z,9.99
2023-05-10T04:32:11.923Z,10.08
2023-05-10T04:34:41.732Z,10.18
2023-05-10T04:37:11.723Z,10.28
2023-05-10T04:39:42.293Z,10.34
2023-05-10T04:42:12.479Z,10.41
2023-05-10T04:44:41.636Z,10.45
2023-05-10T04:47:12.014Z,10.45
2023-05-10T04:49:41.423Z,10.41
2023-05-10T04:52:10.146Z,10.37
2023-05-10T04:54:39.648Z,10.35
2023-05-10T04:57:09.413Z,10.35
2023-05-10T04:59:38.418Z,10.33
2023-05-10T05:02:09.170Z,10.29
2023-05-10T05:04:39.043Z,10.26
2023-05-10T05:07:08.034Z,10.26
2023-05-10T05:09:37.155Z,10.30
2023-05-10T05:12:06.671Z,10.36
2023-05-10T05:14:35.520Z,10.45
2023-05-10T05:17:04.519Z,10.56
2023-05-10T05:19:33.587Z,10.65
2023-05-10T05:22:02.495Z,10.71
2023-05-10T05:24:35.256Z,10.71
2023-05-10T05:27:04.494Z,10.80
2023-05-10T05:29:33.883Z,10.95
2023-05-10T05:32:02.564Z,11.08
2023-05-10T05:34:31.373Z,11.19
2023-05-10T05:37:00.403Z,11.24
2023-05-10T05:39:28.986Z,11.27
2023-05-10T05:41:57.634Z,11.28
2023-05-10T05:44:28.610Z,11.32
2023-05-10T05:46:57.508Z,11.37
2023-05-10T05:49:28.192Z,11.43
2023-05-10T05:52:03.511Z,11.48
2023-05-10T05:54:32.298Z,11.47
2023-05-10T05:57:02.133Z,11.52
2023-05-10T05:59:30.856Z,11.56
2023-05-10T06:02:00.048Z,11.58
2023-05-10T06:04:29.361Z,11.61
2023-05-10T06:06:59.429Z,11.63
2023-05-10T06:09:28.193Z,11.69
2023-05-10T06:11:57.897Z,11.79
2023-05-10T06:14:26.668Z,11.88
2023-05-10T06:16:56.631Z,12.02
2023-05-10T06:19:27.284Z,12.13
2023-05-10T06:21:56.136Z,12.22
2023-05-10T06:24:24.864Z,12.37
2023-05-10T06:26:53.390Z,12.56
2023-05-10T06:29:22.841Z,12.79
2023-05-10T06:31:52.013Z,13.05
2023-05-10T06:34:21.333Z,13.38
2023-05-10T06:36:50.087Z,13.76
2023-05-10T06:39:18.768Z,14.17
2023-05-10T06:41:47.478Z,14.61
2023-05-10T06:44:16.437Z,14.99
2023-05-10T06:46:45.189Z,15.20
2023-05-10T06:49:14.470Z,15.46
2023-05-10T06:51:43.260Z,15.79
2023-05-10T06:54:12.276Z,15.99
2023-05-10T06:56:41.527Z,16.21
2023-05-10T06:59:11.324Z,16.50
2023-05-10T07:01:40.764Z,16.86
2023-05-10T07:04:09.542Z,16.89
2023-05-10T07:06:38.200Z,16.71
2023-05-10T07:09:08.647Z,16.54
2023-05-10T07:11:38.421Z,16.47
2023-05-10T07:14:07.190Z,16.52
2023-05-10T07:16:37.601Z,16.63
2023-05-10T07:19:07.072Z,16.71
2023-05-10T07:21:37.055Z,16.74
2023-05-10T07:24:07.111Z,17.03
2023-05-10T07:26:35.933Z,17.40
2023-05-10T07:29:07.463Z,17.65
2023-05-10T07:31:38.314Z,17.52
2023-05-10T07:34:07.712Z,17.44
2023-05-10T07:36:37.841Z,17.46
2023-05-10T07:39:06.506Z,17.44
2023-05-10T07:41:36.020Z,17.55
2023-05-10T07:44:05.958Z,17.64
2023-05-10T07:46:34.977Z,17.41
2023-05-10T07:49:04.998Z,17.43
2023-05-10T07:51:41.535Z,17.79
2023-05-10T07:54:12.494Z,18.24
2023-05-10T07:56:46.705Z,18.43
2023-05-10T07:59:18.775Z,18.54
2023-05-10T08:01:49.069Z,18.78
2023-05-10T08:04:19.281Z,19.12
2023-05-10T08:06:52.464Z,19.24
2023-05-10T08:09:23.126Z,19.53
2023-05-10T08:11:54.842Z,19.72
2023-05-10T08:14:23.884Z,19.46
2023-05-10T08:16:52.791Z,19.07
2023-05-10T08:19:22.425Z,18.48
2023-05-10T08:21:51.810Z,17.98
2023-05-10T08:24:21.621Z,17.67
2023-05-10T08:26:50.245Z,17.41
2023-05-10T08:29:18.935Z,17.14
2023-05-10T08:31:47.628Z,16.91
2023-05-10T08:34:16.598Z,16.73
2023-05-10T08:36:45.958Z,16.50
2023-05-10T08:39:23.319Z,16.27
2023-05-10T08:41:45.907Z,15.95
2023-05-10T08:44:15.124Z,15.73
2023-05-10T08:46:45.069Z,15.63
2023-05-10T08:49:19.502Z,15.56
2023-05-10T08:51:52.949Z,15.54
2023-05-10T08:54:22.796Z,15.58
2023-05-10T08:56:51.333Z,15.56
2023-05-10T08:59:19.963Z,15.55
2023-05-10T09:01:50.080Z,15.59
2023-05-10T09:04:20.307Z,15.62
2023-05-10T09:06:49.918Z,15.61
2023-05-10T09:09:19.289Z,15.65
2023-05-10T09:11:47.897Z,15.67
2023-05-10T09:14:16.466Z,15.69
2023-05-10T09:16:45.509Z,15.69
2023-05-10T09:19:15.341Z,15.72
2023-05-10T09:21:44.043Z,15.71
2023-05-10T09:24:13.262Z,15.69
2023-05-10T09:26:52.194Z,15.67
2023-05-10T09:29:21.884Z,15.65
2023-05-10T09:31:52.813Z,15.58
2023-05-10T09:34:31.570Z,15.52
2023-05-10T09:37:02.506Z,15.52
2023-05-10T09:39:34.201Z,15.63
2023-05-10T09:42:09.839Z,15.70
2023-05-10T09:44:38.969Z,15.75
2023-05-10T09:47:07.777Z,15.75
2023-05-10T09:49:37.821Z,15.78
2023-05-10T09:52:08.114Z,15.84
2023-05-10T09:54:37.154Z,15.86
2023-05-10T09:57:07.028Z,15.86
2023-05-10T09:59:43.352Z,15.78
2023-05-10T10:02:11.999Z,15.68
2023-05-10T10:04:44.144Z,15.57
2023-05-10T10:07:13.132Z,15.54
2023-05-10T10:09:41.745Z,15.47
2023-05-10T10:12:10.733Z,15.43
2023-05-10T10:14:40.148Z,15.42
2023-05-10T10:17:09.230Z,15.44
2023-05-10T10:19:38.498Z,15.44
2023-05-10T10:22:07.426Z,15.42
2023-05-10T10:24:37.344Z,15.41
2023-05-10T10:27:43.011Z,15.38
2023-05-10T10:30:38.432Z,15.33
2023-05-10T10:33:49.201Z,15.31
2023-05-10T10:36:19.112Z,15.30
2023-05-10T10:39:00.355Z,15.34
2023-05-10T10:41:53.687Z,15.37
2023-05-10T10:44:30.012Z,15.37
2023-05-10T10:47:17.774Z,15.41
2023-05-10T10:50:01.162Z,15.45
2023-05-10T10:52:40.546Z,15.44
2023-05-10T10:55:22.689Z,15.43
2023-05-10T10:57:55.746Z,15.34
2023-05-10T11:00:38.559Z,15.24
2023-05-10T11:03:17.357Z,15.18
2023-05-10T11:05:49.840Z,15.07
2023-05-10T11:08:23.396Z,15.01
2023-05-10T11:10:55.459Z,14.94
2023-05-10T11:13:44.521Z,14.88
2023-05-10T11:16:19.532Z,14.82
2023-05-10T11:19:04.994Z,14.80
2023-05-10T11:21:35.310Z,14.83
2023-05-10T11:24:07.315Z,14.87
2023-05-10T11:26:36.791Z,14.90
2023-05-10T11:29:06.084Z,14.97
2023-05-10T11:31:35.813Z,15.03
2023-05-10T11:34:05.102Z,15.07
2023-05-10T11:36:35.344Z,15.14
2023-05-10T11:39:05.795Z,15.21
2023-05-10T11:41:35.184Z,15.34
2023-05-10T11:44:07.144Z,15.44
2023-05-10T11:46:36.363Z,15.53
2023-05-10T11:49:08.030Z,15.52
2023-05-10T11:51:37.739Z,15.49
2023-05-10T11:54:13.678Z,15.44
2023-05-10T11:56:43.370Z,15.44
2023-05-10T11:59:14.097Z,15.44
2023-05-10T12:01:43.313Z,15.43
2023-05-10T12:04:12.657Z,15.44
2023-05-10T12:06:42.320Z,15.40
2023-05-10T12:09:11.664Z,15.35
2023-05-10T12:11:43.607Z,15.28
2023-05-10T12:14:12.207Z,15.26
2023-05-10T12:16:41.408Z,15.29
2023-05-10T12:19:11.002Z,15.33
2023-05-10T12:21:41.930Z,15.39
2023-05-10T12:24:11.643Z,15.42
2023-05-10T12:26:40.758Z,15.49
2023-05-10T12:29:23.578Z,15.53
2023-05-10T12:31:57.152Z,15.58
2023-05-10T12:34:37.005Z,15.62
2023-05-10T12:37:06.194Z,15.64
2023-05-10T12:39:45.622Z,15.61
2023-05-10T12:42:16.589Z,15.59
2023-05-10T12:44:45.811Z,15.59
2023-05-10T12:47:16.530Z,15.61
2023-05-10T12:49:46.811Z,15.62
2023-05-10T12:52:16.702Z,15.64
2023-05-10T12:54:47.342Z,15.64
2023-05-10T12:57:17.900Z,15.66
2023-05-10T12:59:47.217Z,15.69
2023-05-10T13:02:16.356Z,15.71
2023-05-10T13:04:48.849Z,15.69
2023-05-10T13:07:18.495Z,15.60
2023-05-10T13:09:47.811Z,15.55
2023-05-10T13:12:16.856Z,15.51
2023-05-10T13:14:46.922Z,15.42
2023-05-10T13:17:16.885Z,15.26
2023-05-10T13:19:46.166Z,15.13
2023-05-10T13:22:22.955Z,15.00
2023-05-10T13:24:48.340Z,14.90
2023-05-10T13:27:18.064Z,14.86
2023-05-10T13:29:49.176Z,14.88
2023-05-10T13:32:18.218Z,14.92
2023-05-10T13:34:47.497Z,14.93
2023-05-10T13:37:18.111Z,14.91
2023-05-10T13:39:47.024Z,14.86
2023-05-10T13:42:16.510Z,14.88
2023-05-10T13:44:45.580Z,14.93
2023-05-10T13:47:15.135Z,14.98
2023-05-10T13:49:44.936Z,15.06
2023-05-10T13:52:14.557Z,15.13
2023-05-10T13:54:44.884Z,15.18
2023-05-10T13:57:17.906Z,15.26
2023-05-10T13:59:47.788Z,15.37
2023-05-10T14:02:19.710Z,15.41
2023-05-10T14:04:49.978Z,15.45
2023-05-10T14:07:20.194Z,15.52
2023-05-10T14:09:49.500Z,15.56
2023-05-10T14:12:17.980Z,15.58
2023-05-10T14:14:47.171Z,15.58
2023-05-10T14:17:17.149Z,15.57
2023-05-10T14:19:46.487Z,15.60
2023-05-10T14:22:16.746Z,15.63
2023-05-10T14:24:47.901Z,15.67
2023-05-10T14:27:16.878Z,15.68
2023-05-10T14:29:46.067Z,15.71
2023-05-10T14:32:15.720Z,15.69
2023-05-10T14:34:45.230Z,15.64
2023-05-10T14:37:14.824Z,15.59
2023-05-10T14:39:44.911Z,15.58
2023-05-10T14:42:13.705Z,15.53
2023-05-10T14:44:43.236Z,15.52
2023-05-10T14:47:13.040Z,15.49
2023-05-10T14:49:41.718Z,15.52
2023-05-10T14:52:14.334Z,15.60
2023-05-10T14:54:43.699Z,15.69
2023-05-10T14:57:12.897Z,15.73
2023-05-10T14:59:42.581Z,15.70
2023-05-10T15:02:13.476Z,15.70
2023-05-10T15:04:42.938Z,15.68
2023-05-10T15:07:14.631Z,15.65
2023-05-10T15:09:43.814Z,15.58
2023-05-10T15:12:12.791Z,15.50
2023-05-10T15:14:41.984Z,15.48
2023-05-10T15:17:10.976Z,15.46
2023-05-10T15:19:40.086Z,15.45
2023-05-10T15:22:09.457Z,15.46
2023-05-10T15:24:38.830Z,15.44
2023-05-10T15:27:07.617Z,15.41
2023-05-10T15:29:36.783Z,15.38
2023-05-10T15:32:06.137Z,15.37
2023-05-10T15:34:37.180Z,15.35
2023-05-10T15:37:09.827Z,15.32
2023-05-10T15:39:39.663Z,15.29
2023-05-10T15:42:08.496Z,15.29
2023-05-10T15:44:39.218Z,15.30
2023-05-10T15:47:07.933Z,15.29
2023-05-10T15:49:38.360Z,15.29
2023-05-10T15:52:07.761Z,15.26
2023-05-10T15:54:36.847Z,15.24
2023-05-10T15:57:06.204Z,15.23
2023-05-10T15:59:36.142Z,15.22
2023-05-10T16:02:05.932Z,15.24
2023-05-10T16:04:37.564Z,15.28
2023-05-10T16:07:06.315Z,15.28
2023-05-10T16:09:36.308Z,15.29
2023-05-10T16:12:05.735Z,15.29
2023-05-10T16:14:35.795Z,15.29
2023-05-10T16:17:05.074Z,15.29
2023-05-10T16:19:34.180Z,15.29
2023-05-10T16:22:03.499Z,15.26
2023-05-10T16:24:33.276Z,15.22
2023-05-10T16:27:02.964Z,15.19
2023-05-10T16:29:32.112Z,15.16
2023-05-10T16:32:01.637Z,15.16
2023-05-10T16:34:31.107Z,15.16
2023-05-10T16:37:00.743Z,15.16
2023-05-10T16:39:30.229Z,15.14
2023-05-10T16:41:59.889Z,15.10
2023-05-10T16:44:30.176Z,15.07
2023-05-10T16:46:59.919Z,15.04
2023-05-10T16:49:29.994Z,15.00
2023-05-10T16:52:00.665Z,14.94
2023-05-10T16:54:31.632Z,14.88
2023-05-10T16:57:02.089Z,14.82
2023-05-10T16:59:31.100Z,14.77
2023-05-10T17:02:00.597Z,14.74
2023-05-10T17:04:30.519Z,14.68
2023-05-10T17:07:00.033Z,14.62
2023-05-10T17:09:29.652Z,14.57
2023-05-10T17:11:58.875Z,14.53
2023-05-10T17:14:28.407Z,14.48
2023-05-10T17:16:58.679Z,14.44
2023-05-10T17:19:28.151Z,14.40
2023-05-10T17:21:57.994Z,14.33
2023-05-10T17:24:29.180Z,14.27
2023-05-10T17:27:00.432Z,14.24
2023-05-10T17:29:31.801Z,14.19
2023-05-10T17:32:01.064Z,14.16
2023-05-10T17:34:30.979Z,14.12
2023-05-10T17:37:00.378Z,14.05
2023-05-10T17:39:30.054Z,13.98
2023-05-10T17:41:59.912Z,13.92
2023-05-10T17:44:28.858Z,13.85
2023-05-10T17:46:58.533Z,13.81
2023-05-10T17:49:28.537Z,13.77
2023-05-10T17:51:58.062Z,13.72
2023-05-10T17:54:27.395Z,13.64
2023-05-10T17:56:58.059Z,13.54
2023-05-10T17:59:28.269Z,13.48
2023-05-10T18:01:57.074Z,13.39
2023-05-10T18:04:26.544Z,13.30
2023-05-10T18:06:57.909Z,13.25
2023-05-10T18:09:28.069Z,13.20
2023-05-10T18:11:57.894Z,13.16
2023-05-10T18:14:39.622Z,13.09
2023-05-10T18:17:01.919Z,12.99
2023-05-10T18:19:31.605Z,12.89
2023-05-10T18:22:01.004Z,12.82
2023-05-10T18:24:38.908Z,12.74
2023-05-10T18:27:01.036Z,12.65
2023-05-10T18:29:31.058Z,12.57
2023-05-10T18:32:00.382Z,12.47
2023-05-10T18:34:29.869Z,12.41
2023-05-10T18:36:59.185Z,12.35
2023-05-10T18:39:32.557Z,12.26
2023-05-10T18:42:02.363Z,12.20
2023-05-10T18:44:32.286Z,12.11
2023-05-10T18:47:01.699Z,12.01
2023-05-10T18:49:31.129Z,11.93
2023-05-10T18:52:00.274Z,11.86
2023-05-10T18:54:29.915Z,11.80
2023-05-10T18:56:58.992Z,11.71
2023-05-10T18:59:28.131Z,11.61
2023-05-10T19:01:57.688Z,11.50
2023-05-10T19:04:27.235Z,11.45
2023-05-10T19:06:56.835Z,11.38
2023-05-10T19:09:27.722Z,11.31
2023-05-10T19:11:57.207Z,11.25
2023-05-10T19:14:27.658Z,11.23
2023-05-10T19:16:57.476Z,11.19
2023-05-10T19:19:27.459Z,11.18
2023-05-10T19:21:56.832Z,11.13
2023-05-10T19:24:26.613Z,11.07
2023-05-10T19:26:57.535Z,11.03
2023-05-10T19:29:26.313Z,10.97
2023-05-10T19:31:57.049Z,10.92
2023-05-10T19:34:30.167Z,10.89
2023-05-10T19:36:59.264Z,10.86
2023-05-10T19:39:29.337Z,10.80
2023-05-10T19:41:59.589Z,10.76
2023-05-10T19:44:29.286Z,10.73
2023-05-10T19:46:59.024Z,10.69
2023-05-10T19:49:28.180Z,10.66
2023-05-10T19:51:57.782Z,10.62
2023-05-10T19:54:27.710Z,10.54
2023-05-10T19:56:56.809Z,10.46
2023-05-10T19:59:27.614Z,10.44
2023-05-10T20:01:56.864Z,10.42
2023-05-10T20:04:28.211Z,10.38
2023-05-10T20:06:57.483Z,10.29
2023-05-10T20:09:26.065Z,10.21
2023-05-10T20:11:56.717Z,10.17
2023-05-10T20:14:25.654Z,10.09
2023-05-10T20:16:54.545Z,10.03
2023-05-10T20:19:25.347Z,9.99
2023-05-10T20:21:56.183Z,9.96
2023-05-10T20:24:25.056Z,9.91
2023-05-10T20:26:54.351Z,9.90
2023-05-10T20:29:23.642Z,9.88
2023-05-10T20:31:52.777Z,9.81
2023-05-10T20:34:22.282Z,9.71
2023-05-10T20:36:51.366Z,9.64
2023-05-10T20:39:20.284Z,9.56
2023-05-10T20:41:49.908Z,9.53
2023-05-10T20:44:19.144Z,9.52
2023-05-10T20:46:50.283Z,9.54
2023-05-10T20:49:19.672Z,9.53
2023-05-10T20:51:49.404Z,9.53
2023-05-10T20:54:18.910Z,9.51
2023-05-10T20:56:48.317Z,9.47
2023-05-10T20:59:18.716Z,9.39
2023-05-10T21:01:48.029Z,9.33
2023-05-10T21:04:17.293Z,9.20
2023-05-10T21:06:46.715Z,9.14
2023-05-10T21:09:16.863Z,9.09
2023-05-10T21:11:45.661Z,9.07
2023-05-10T21:14:14.431Z,9.03
2023-05-10T21:16:44.776Z,9.03
2023-05-10T21:19:14.065Z,9.02
2023-05-10T21:21:43.428Z,9.00
2023-05-10T21:24:12.122Z,8.95
2023-05-10T21:26:41.760Z,8.93
2023-05-10T21:29:10.788Z,8.92
2023-05-10T21:31:39.846Z,8.90
2023-05-10T21:34:09.275Z,8.91
2023-05-10T21:36:38.977Z,8.89
2023-05-10T21:39:07.823Z,8.90
2023-05-10T21:41:36.811Z,8.88
2023-05-10T21:44:06.065Z,8.84
2023-05-10T21:46:35.919Z,8.78
2023-05-10T21:49:04.881Z,8.73
2023-05-10T21:51:34.608Z,8.71
2023-05-10T21:54:04.693Z,8.70
2023-05-10T21:56:33.713Z,8.69
2023-05-10T21:59:03.444Z,8.64
2023-05-10T22:01:32.253Z,8.56
2023-05-10T22:06:48.853Z,8.53
2023-05-10T22:09:18.766Z,8.49
2023-05-10T22:11:48.870Z,8.46
2023-05-10T22:14:18.087Z,8.44
2023-05-10T22:16:47.491Z,8.42
2023-05-10T22:19:16.368Z,8.42
2023-05-10T22:21:45.599Z,8.43
2023-05-10T22:24:14.920Z,8.41
2023-05-10T22:26:43.900Z,8.37
2023-05-10T22:29:13.365Z,8.33
2023-05-10T22:31:42.733Z,8.32
2023-05-10T22:34:11.889Z,8.26
2023-05-10T22:36:41.285Z,8.22
2023-05-10T22:39:10.300Z,8.19
2023-05-10T22:41:40.171Z,8.16
2023-05-10T22:44:08.878Z,8.10
2023-05-10T22:46:38.344Z,8.06
2023-05-10T22:49:07.420Z,8.04
2023-05-10T22:51:37.300Z,7.99
2023-05-10T22:54:07.062Z,7.97
2023-05-10T22:56:37.737Z,7.95
2023-05-10T22:59:06.934Z,7.93
2023-05-10T23:01:36.289Z,7.91
2023-05-10T23:04:05.405Z,7.86
2023-05-10T23:06:34.759Z,7.80
2023-05-10T23:09:03.925Z,7.77
2023-05-10T23:11:32.737Z,7.75
2023-05-10T23:14:02.288Z,7.72
2023-05-10T23:16:31.436Z,7.70
2023-05-10T23:19:00.741Z,7.71
2023-05-10T23:21:31.963Z,7.71
2023-05-10T23:24:01.344Z,7.67
2023-05-10T23:26:33.050Z,7.66
2023-05-10T23:29:03.477Z,7.67
2023-05-10T23:31:32.922Z,7.65
2023-05-10T23:34:03.264Z,7.64
2023-05-10T23:36:33.424Z,7.65
2023-05-10T23:39:04.691Z,7.65
2023-05-10T23:41:34.000Z,7.67
2023-05-10T23:44:03.668Z,7.68
2023-05-10T23:46:32.821Z,7.66
2023-05-10T23:49:02.746Z,7.68
2023-05-10T23:51:33.015Z,7.68
2023-05-10T23:54:02.755Z,7.64
2023-05-10T23:56:31.922Z,7.60
2023-05-10T23:59:00.644Z,7.58
